Bellefontne, Ohio
Current Conditions -  °F | °C
As of 2:15 PM on Monday 20 Oct 2014 (Local Time) from KEDJ Reporting Station
Overcast Overcast  
Wind Chill: 52°   Ceiling: 2900
Heat Index: 52°   Visibility: 3mi
Dew Point: 50°   Wind: 10mph
Humidity: 94%   Direction: 200°SSW
Pressure: 29.87"   Gusts: NA
Location:  40.3706°N, 83.7423°W
Report Text: KEDJ 201815Z AUTO 20009KT 3SM FEW004 BKN029 OVC050 11/10 A2987 RMK AO1 P0004
Loading
Personal Weather Stations






























Interactive Weather Map
Tropical Storm Tracking
New forecast layout! Learn more

10-Day Weather Forecast

Advertisements
Track Severe Weather on mobile